Terminal Aerodrome Forecast
Issued by NWS Duluth, MN

Home | Current Version | Previous Version | Text Only | Print | Product List | Glossary On
Versions: 1 2 3 4 5 6 7 8 9 10 11 12 13 14 15 16 17 18 19 20 21
000
FTUS43 KDLH 231139
TAFDLH
TAF
KDLH 231139Z 2312/2412 21011KT P6SM SKC WS020/21035KT
     FM231500 20014G22KT P6SM FEW150
     FM240100 20011KT P6SM SCT060
     FM240700 20008KT 4SM BR VCSH BKN025 OVC050
     FM240900 19006KT 2SM -RA BR BKN008=

USA.gov is the U.S. government's official web portal to all federal, state and local government web resources and services.